Time;durP1;ratioP1;P1;durP2;ratioP2;P2;SDS_P1;SDS_P2;PMS_P1;PMS_P2;Temp;Humidity;BMP_temperature;BMP_pressure;BME280_temperature;BME280_humidity;BME280_pressure;Samples;Min_cycle;Max_cycle;Signal;HPM_P1;HPM_P2
2022/10/19 00:02:20;;;;;;;;;;;12.00;99.90;;;;;;4963910;28;20444;-75
2022/10/19 00:04:45;;;;;;;;;;;12.10;99.90;;;;;;4962262;28;20379;-75
2022/10/19 00:07:11;;;;;;;;;;;12.00;99.90;;;;;;4960639;28;19972;-75
2022/10/19 00:09:36;;;;;;;;;;;12.00;99.90;;;;;;4967158;28;20376;-75
2022/10/19 00:12:02;;;;;;;;;;;11.80;99.90;;;;;;4958457;28;20317;-74
2022/10/19 00:14:27;;;;;;;;;;;11.80;99.90;;;;;;4963941;28;19910;-75
2022/10/19 00:16:54;;;;;;;;;;;11.80;99.90;;;;;;4955472;28;19952;-74
2022/10/19 00:19:22;;;;;;;;;;;11.80;99.90;;;;;;4968891;28;19914;-75
2022/10/19 00:21:47;;;;;;;;;;;11.90;99.90;;;;;;4962440;28;19910;-75
2022/10/19 00:24:12;;;;;;;;;;;11.90;99.90;;;;;;4965594;28;19983;-75
2022/10/19 00:26:38;;;;;;;;;;;11.90;99.90;;;;;;4966346;28;19920;-75
2022/10/19 00:29:04;;;;;;;;;;;11.90;99.90;;;;;;4957346;28;20005;-75
2022/10/19 00:31:29;;;;;;;;;;;11.90;99.90;;;;;;4963717;28;19914;-75
2022/10/19 00:33:55;;;;;;;;;;;12.00;99.90;;;;;;4962567;28;19917;-75
2022/10/19 00:36:22;;;;;;;;;;;12.00;99.90;;;;;;4966070;28;19917;-75
2022/10/19 00:38:48;;;;;;;;;;;12.00;99.90;;;;;;4966353;28;19964;-74
2022/10/19 00:41:14;;;;;;;;;;;12.00;99.90;;;;;;4958339;28;19914;-74
2022/10/19 00:43:51;;;;;;;;;;;12.00;99.90;;;;;;4961289;28;19954;-74
2022/10/19 00:46:17;;;;;;;;;;;12.00;99.90;;;;;;4964674;28;19957;-76
2022/10/19 00:48:42;;;;;;;;;;;12.00;99.90;;;;;;4962462;28;19968;-74
2022/10/19 00:51:07;;;;;;;;;;;12.00;99.90;;;;;;4967414;28;19921;-75
2022/10/19 00:53:34;;;;;;;;;;;12.00;99.90;;;;;;4964946;28;19914;-74
2022/10/19 00:56:02;;;;;;;;;;;12.00;99.90;;;;;;4962459;28;19957;-75
2022/10/19 00:58:27;;;;;;;;;;;12.00;99.90;;;;;;4969972;28;19999;-74
2022/10/19 01:00:52;;;;;;;;;;;12.00;99.90;;;;;;4968379;28;20013;-75
2022/10/19 01:03:19;;;;;;;;;;;11.90;99.90;;;;;;4971120;28;19944;-75
2022/10/19 01:05:44;;;;;;;;;;;11.90;99.90;;;;;;4969306;28;20395;-74
2022/10/19 01:08:10;;;;;;;;;;;12.00;99.90;;;;;;4964383;28;19910;-74
2022/10/19 01:10:46;;;;;;;;;;;12.00;99.90;;;;;;4967066;28;19922;-74
2022/10/19 01:13:30;;;;;;;;;;;12.00;99.90;;;;;;4967419;28;20363;-75
2022/10/19 01:15:55;;;;;;;;;;;12.00;99.90;;;;;;4963038;28;19940;-74
2022/10/19 01:18:24;;;;;;;;;;;11.90;99.90;;;;;;4967815;28;19914;-74
2022/10/19 01:21:02;;;;;;;;;;;11.90;99.90;;;;;;4970381;28;19921;-75
2022/10/19 01:23:54;;;;;;;;;;;11.90;99.90;;;;;;4964739;28;19914;-74
2022/10/19 01:26:38;;;;;;;;;;;11.90;99.90;;;;;;4966471;28;19922;-75
2022/10/19 01:29:21;;;;;;;;;;;11.90;99.90;;;;;;4964726;28;20277;-74
2022/10/19 01:31:58;;;;;;;;;;;11.80;99.90;;;;;;4967320;28;20373;-75
2022/10/19 01:34:28;;;;;;;;;;;11.90;99.90;;;;;;4967042;28;19913;-75
2022/10/19 01:37:09;;;;;;;;;;;11.90;99.90;;;;;;4965085;28;19910;-75
2022/10/19 01:39:45;;;;;;;;;;;11.90;99.90;;;;;;4966288;28;20100;-74
2022/10/19 01:42:16;;;;;;;;;;;12.00;99.90;;;;;;4962467;28;19914;-75
2022/10/19 01:44:47;;;;;;;;;;;12.00;99.90;;;;;;4969429;28;19936;-75
2022/10/19 01:47:15;;;;;;;;;;;12.00;99.90;;;;;;4973230;28;20642;-75
2022/10/19 01:49:46;;;;;;;;;;;12.00;99.90;;;;;;4966945;28;19965;-75
2022/10/19 01:52:14;;;;;;;;;;;12.00;99.90;;;;;;4967539;28;20354;-74
2022/10/19 01:54:45;;;;;;;;;;;12.00;99.90;;;;;;4969259;28;19922;-75
2022/10/19 01:57:12;;;;;;;;;;;12.00;99.90;;;;;;4969859;28;19914;-74
2022/10/19 01:59:38;;;;;;;;;;;12.00;99.90;;;;;;4971272;28;19917;-75
2022/10/19 02:02:04;;;;;;;;;;;12.00;99.90;;;;;;4967004;28;20770;-74
2022/10/19 02:04:30;;;;;;;;;;;12.10;99.90;;;;;;4966597;28;19937;-75
2022/10/19 02:06:56;;;;;;;;;;;12.00;99.90;;;;;;4965795;28;19918;-76
2022/10/19 02:09:22;;;;;;;;;;;12.00;99.90;;;;;;4963362;28;20052;-74
2022/10/19 02:11:52;;;;;;;;;;;12.00;99.90;;;;;;4966701;28;20008;-74
2022/10/19 02:14:21;;;;;;;;;;;12.00;99.90;;;;;;4968297;28;19910;-74
2022/10/19 02:16:50;;;;;;;;;;;12.00;99.90;;;;;;4968797;28;20320;-74
2022/10/19 02:19:16;;;;;;;;;;;11.80;99.90;;;;;;4955749;28;19910;-74
2022/10/19 02:21:41;;;;;;;;;;;11.80;99.90;;;;;;4962704;28;19953;-75
2022/10/19 02:24:07;;;;;;;;;;;11.80;99.90;;;;;;4965328;28;20546;-74
2022/10/19 02:26:32;;;;;;;;;;;11.80;99.90;;;;;;4969736;28;19964;-74
2022/10/19 02:28:58;;;;;;;;;;;11.70;99.90;;;;;;4965259;28;19925;-74
2022/10/19 02:31:24;;;;;;;;;;;11.70;99.90;;;;;;4965905;28;19963;-74
2022/10/19 02:33:50;;;;;;;;;;;11.80;99.90;;;;;;4965129;28;19974;-74
2022/10/19 02:36:16;;;;;;;;;;;11.80;99.90;;;;;;4962482;28;20093;-74
2022/10/19 02:38:41;;;;;;;;;;;11.80;99.90;;;;;;4969248;28;19910;-74
2022/10/19 02:41:15;;;;;;;;;;;11.80;99.90;;;;;;4963157;28;19933;-74
2022/10/19 02:43:46;;;;;;;;;;;11.70;99.90;;;;;;4966192;28;20370;-74
2022/10/19 02:46:19;;;;;;;;;;;11.70;99.90;;;;;;4964998;28;19937;-74
2022/10/19 02:48:45;;;;;;;;;;;11.70;99.90;;;;;;4966408;28;19914;-74
2022/10/19 02:51:26;;;;;;;;;;;11.80;99.90;;;;;;4963280;28;20254;-74
2022/10/19 02:53:52;;;;;;;;;;;11.80;99.90;;;;;;4961887;28;19918;-74
2022/10/19 02:56:17;;;;;;;;;;;11.90;99.90;;;;;;4966214;28;19992;-74
2022/10/19 02:58:42;;;;;;;;;;;11.80;99.90;;;;;;4967244;28;19956;-74
2022/10/19 03:01:08;;;;;;;;;;;11.80;99.90;;;;;;4966008;28;20346;-74
2022/10/19 03:03:33;;;;;;;;;;;11.80;99.90;;;;;;4969171;28;19910;-74
2022/10/19 03:05:58;;;;;;;;;;;11.70;99.90;;;;;;4965086;28;20004;-74
2022/10/19 03:08:24;;;;;;;;;;;11.80;99.90;;;;;;4962191;28;19918;-74
2022/10/19 03:10:49;;;;;;;;;;;11.80;99.90;;;;;;4965269;28;19914;-74
2022/10/19 03:13:15;;;;;;;;;;;11.80;99.90;;;;;;4967027;28;19921;-75
2022/10/19 03:15:40;;;;;;;;;;;11.90;99.90;;;;;;4961926;28;19910;-73
2022/10/19 03:18:05;;;;;;;;;;;11.90;99.90;;;;;;4966184;28;20421;-74
2022/10/19 03:20:31;;;;;;;;;;;11.90;99.90;;;;;;4960711;28;19953;-74
2022/10/19 03:22:56;;;;;;;;;;;11.90;99.90;;;;;;4963876;28;20048;-74
2022/10/19 03:25:22;;;;;;;;;;;11.90;99.90;;;;;;4955951;28;19914;-77
2022/10/19 03:27:47;;;;;;;;;;;11.80;99.90;;;;;;4963116;28;20349;-74
2022/10/19 03:30:12;;;;;;;;;;;11.90;99.90;;;;;;4964302;28;20016;-75
2022/10/19 03:32:38;;;;;;;;;;;11.80;99.90;;;;;;4961805;28;20552;-75
2022/10/19 03:35:04;;;;;;;;;;;11.80;99.90;;;;;;4958666;28;19911;-75
2022/10/19 03:37:29;;;;;;;;;;;11.80;99.90;;;;;;4958916;28;19910;-75
2022/10/19 03:39:54;;;;;;;;;;;11.80;99.90;;;;;;4966538;28;19914;-75
2022/10/19 03:42:20;;;;;;;;;;;11.60;99.90;;;;;;4959227;28;20361;-74
2022/10/19 03:44:48;;;;;;;;;;;11.70;99.90;;;;;;4964570;28;19921;-76
2022/10/19 03:47:14;;;;;;;;;;;11.70;99.90;;;;;;4963260;28;19977;-77
2022/10/19 03:49:39;;;;;;;;;;;11.70;99.90;;;;;;4961351;28;19981;-76
2022/10/19 03:52:04;;;;;;;;;;;11.60;99.90;;;;;;4966690;28;19947;-73
2022/10/19 03:54:30;;;;;;;;;;;11.60;99.90;;;;;;4963479;28;19957;-78
2022/10/19 03:56:55;;;;;;;;;;;11.60;99.90;;;;;;4949863;28;20005;-78
2022/10/19 03:59:21;;;;;;;;;;;11.70;99.90;;;;;;4957010;28;20070;-78
2022/10/19 04:01:47;;;;;;;;;;;11.80;99.90;;;;;;4958127;28;19914;-77
2022/10/19 04:04:14;;;;;;;;;;;11.70;99.90;;;;;;4958550;28;19924;-76
2022/10/19 04:06:40;;;;;;;;;;;11.70;99.90;;;;;;4958023;28;19921;-77
2022/10/19 04:09:07;;;;;;;;;;;11.70;99.90;;;;;;4956204;28;20424;-77
2022/10/19 04:11:33;;;;;;;;;;;11.60;99.90;;;;;;4957951;28;19918;-77
2022/10/19 04:13:59;;;;;;;;;;;11.70;99.90;;;;;;4957823;28;20301;-77
2022/10/19 04:16:25;;;;;;;;;;;11.60;99.90;;;;;;4956387;28;19918;-77
2022/10/19 04:18:51;;;;;;;;;;;11.60;99.90;;;;;;4957241;28;20349;-77
2022/10/19 04:21:23;;;;;;;;;;;11.70;99.90;;;;;;4958264;28;20001;-77
2022/10/19 04:23:50;;;;;;;;;;;11.60;99.90;;;;;;4956488;28;20391;-77
2022/10/19 04:26:15;;;;;;;;;;;11.50;99.90;;;;;;4957991;28;19922;-80
2022/10/19 04:28:41;;;;;;;;;;;11.60;99.90;;;;;;4957744;28;19987;-86
2022/10/19 04:31:06;;;;;;;;;;;11.60;99.90;;;;;;4956420;28;19918;-86
2022/10/19 04:33:32;;;;;;;;;;;11.60;99.90;;;;;;4957722;28;20289;-83
2022/10/19 04:36:02;;;;;;;;;;;11.50;99.90;;;;;;4956419;28;20351;-82
2022/10/19 04:38:28;;;;;;;;;;;11.60;99.90;;;;;;4957483;28;20301;-80
2022/10/19 04:40:54;;;;;;;;;;;11.60;99.90;;;;;;4958237;28;19946;-79
2022/10/19 04:43:20;;;;;;;;;;;11.60;99.90;;;;;;4956748;28;19914;-79
2022/10/19 04:45:45;;;;;;;;;;;11.60;99.90;;;;;;4954250;28;20297;-79
2022/10/19 04:48:11;;;;;;;;;;;11.60;99.90;;;;;;4957002;28;19918;-78
2022/10/19 04:50:36;;;;;;;;;;;11.60;99.90;;;;;;4958345;28;19980;-78
2022/10/19 04:53:02;;;;;;;;;;;11.60;99.90;;;;;;4958600;28;20444;-79
2022/10/19 04:55:27;;;;;;;;;;;11.60;99.90;;;;;;4957396;28;19913;-80
2022/10/19 04:57:53;;;;;;;;;;;11.60;99.90;;;;;;4957265;28;19911;-81
2022/10/19 05:00:18;;;;;;;;;;;11.60;99.90;;;;;;4957830;28;19957;-78
2022/10/19 05:02:44;;;;;;;;;;;11.60;99.90;;;;;;4957693;28;19981;-79
2022/10/19 05:05:10;;;;;;;;;;;11.50;99.90;;;;;;4958772;28;20293;-79
2022/10/19 05:07:36;;;;;;;;;;;11.70;99.90;;;;;;4956348;28;19966;-79
2022/10/19 05:10:01;;;;;;;;;;;11.70;99.90;;;;;;4957699;28;19951;-79
2022/10/19 05:12:26;;;;;;;;;;;11.80;99.90;;;;;;4955782;28;19976;-79
2022/10/19 05:14:52;;;;;;;;;;;11.80;99.90;;;;;;4957301;28;20014;-78
2022/10/19 05:17:17;;;;;;;;;;;11.80;99.90;;;;;;4960883;28;19925;-80
2022/10/19 05:19:43;;;;;;;;;;;11.70;99.90;;;;;;4967056;28;19910;-80
2022/10/19 05:22:08;;;;;;;;;;;11.40;99.90;;;;;;4957067;28;20354;-80
2022/10/19 05:24:33;;;;;;;;;;;11.30;99.90;;;;;;4966844;28;20007;-80
2022/10/19 05:26:59;;;;;;;;;;;11.30;99.90;;;;;;4955662;28;19977;-80
2022/10/19 05:29:24;;;;;;;;;;;11.20;99.90;;;;;;4964041;28;19914;-81
2022/10/19 05:31:50;;;;;;;;;;;11.10;99.90;;;;;;4962340;28;19983;-82
2022/10/19 05:34:15;;;;;;;;;;;11.10;99.90;;;;;;4964996;28;19969;-82
2022/10/19 05:36:40;;;;;;;;;;;10.90;99.90;;;;;;4964075;28;20427;-81
2022/10/19 05:39:08;;;;;;;;;;;10.80;99.90;;;;;;4964058;28;20396;-81
2022/10/19 05:41:33;;;;;;;;;;;10.80;99.90;;;;;;4954351;28;19916;-81
2022/10/19 05:43:59;;;;;;;;;;;10.80;99.90;;;;;;4968617;28;20459;-82
2022/10/19 05:46:26;;;;;;;;;;;10.90;99.90;;;;;;4965062;28;19929;-81
2022/10/19 05:48:52;;;;;;;;;;;10.90;99.90;;;;;;4955874;28;19917;-81
2022/10/19 05:51:18;;;;;;;;;;;11.00;99.90;;;;;;4963175;28;20009;-81
2022/10/19 05:53:44;;;;;;;;;;;11.10;99.90;;;;;;4960742;28;19921;-81
2022/10/19 05:56:12;;;;;;;;;;;11.10;99.90;;;;;;4970465;28;19910;-82
2022/10/19 05:58:37;;;;;;;;;;;11.20;99.90;;;;;;4967601;28;20116;-80
2022/10/19 06:01:03;;;;;;;;;;;11.20;99.90;;;;;;4963801;28;19917;-80
2022/10/19 06:03:29;;;;;;;;;;;11.20;99.90;;;;;;4957791;28;19918;-80
2022/10/19 06:05:54;;;;;;;;;;;11.30;99.90;;;;;;4962734;28;19914;-81
2022/10/19 06:08:21;;;;;;;;;;;11.30;99.90;;;;;;4956240;28;19914;-80
2022/10/19 06:10:47;;;;;;;;;;;11.40;99.90;;;;;;4976218;28;19957;-82
2022/10/19 06:13:13;;;;;;;;;;;11.40;99.90;;;;;;4964422;28;19910;-80
2022/10/19 06:15:39;;;;;;;;;;;11.50;99.90;;;;;;4968089;28;19910;-81
2022/10/19 06:18:11;;;;;;;;;;;11.50;99.90;;;;;;4966616;28;19910;-81
2022/10/19 06:20:37;;;;;;;;;;;11.50;99.90;;;;;;4964107;28;19925;-81
2022/10/19 06:23:04;;;;;;;;;;;11.60;99.90;;;;;;4962981;28;19924;-82
2022/10/19 06:25:30;;;;;;;;;;;11.50;99.90;;;;;;4966134;28;19952;-80
2022/10/19 06:27:55;;;;;;;;;;;11.50;99.90;;;;;;4965225;28;20349;-80
2022/10/19 06:30:20;;;;;;;;;;;11.50;99.90;;;;;;4960352;28;19914;-76
2022/10/19 06:32:46;;;;;;;;;;;11.40;99.90;;;;;;4965438;28;20425;-76
2022/10/19 06:35:11;;;;;;;;;;;11.50;99.90;;;;;;4967496;28;19910;-75
2022/10/19 06:37:37;;;;;;;;;;;11.70;99.90;;;;;;4959775;28;19966;-74
2022/10/19 06:40:02;;;;;;;;;;;11.50;99.90;;;;;;4967158;28;19911;-75
2022/10/19 06:42:28;;;;;;;;;;;11.60;99.90;;;;;;4966289;28;19914;-75
2022/10/19 06:44:53;;;;;;;;;;;11.50;99.90;;;;;;4968515;28;20626;-74
2022/10/19 06:47:19;;;;;;;;;;;11.60;99.90;;;;;;4965819;28;19921;-73
2022/10/19 06:49:44;;;;;;;;;;;11.70;99.90;;;;;;4969118;28;19914;-74
2022/10/19 06:52:09;;;;;;;;;;;11.70;99.90;;;;;;4965966;28;19910;-74
2022/10/19 06:54:35;;;;;;;;;;;11.60;99.90;;;;;;4964302;28;19922;-74
2022/10/19 06:57:00;;;;;;;;;;;11.70;99.90;;;;;;4961902;28;20340;-74
2022/10/19 06:59:26;;;;;;;;;;;11.90;99.90;;;;;;4964791;28;19918;-76
2022/10/19 07:01:51;;;;;;;;;;;11.80;99.90;;;;;;4967983;28;19949;-76
2022/10/19 07:04:16;;;;;;;;;;;11.80;99.90;;;;;;4963385;28;19916;-76
2022/10/19 07:06:42;;;;;;;;;;;11.90;99.90;;;;;;4964455;28;20272;-78
2022/10/19 07:09:07;;;;;;;;;;;11.80;99.90;;;;;;4956940;28;20013;-74
2022/10/19 07:14:43;;;;;;;;;;;12.10;99.90;;;;;;4935949;28;19917;-74
2022/10/19 07:17:10;;;;;;;;;;;12.20;99.90;;;;;;4949627;28;20289;-75
2022/10/19 07:19:35;;;;;;;;;;;12.20;99.90;;;;;;4959997;28;19914;-75
2022/10/19 07:22:01;;;;;;;;;;;12.30;99.90;;;;;;4956486;28;19906;-74
2022/10/19 07:24:26;;;;;;;;;;;12.40;99.90;;;;;;4955406;28;19915;-74
2022/10/19 07:26:51;;;;;;;;;;;12.40;99.90;;;;;;4952266;28;19915;-74
2022/10/19 07:29:17;;;;;;;;;;;12.50;99.90;;;;;;4954108;28;19994;-74
2022/10/19 07:31:42;;;;;;;;;;;12.60;99.90;;;;;;4957855;28;19923;-75
2022/10/19 07:34:12;;;;;;;;;;;12.70;99.90;;;;;;4967057;28;19921;-74
2022/10/19 07:36:38;;;;;;;;;;;12.40;99.90;;;;;;4955621;28;20357;-74
2022/10/19 07:39:05;;;;;;;;;;;12.50;99.90;;;;;;4951440;28;19906;-74
2022/10/19 07:41:30;;;;;;;;;;;12.60;99.90;;;;;;4953090;28;19964;-74
2022/10/19 07:43:56;;;;;;;;;;;12.80;99.90;;;;;;4954565;28;20380;-74
2022/10/19 07:46:24;;;;;;;;;;;12.90;99.90;;;;;;4950915;28;19914;-74
2022/10/19 07:48:49;;;;;;;;;;;13.00;99.90;;;;;;4951240;28;19917;-74
2022/10/19 07:51:15;;;;;;;;;;;13.20;99.90;;;;;;4958344;28;19913;-74
2022/10/19 07:53:41;;;;;;;;;;;13.30;99.90;;;;;;4957334;28;19980;-75
2022/10/19 07:56:11;;;;;;;;;;;13.50;99.90;;;;;;4955010;28;19914;-74
2022/10/19 07:58:37;;;;;;;;;;;13.20;99.90;;;;;;4959535;28;19997;-74
2022/10/19 08:01:04;;;;;;;;;;;12.90;99.90;;;;;;4968216;28;20709;-75
2022/10/19 08:03:29;;;;;;;;;;;13.00;99.90;;;;;;4967637;28;19921;-75
2022/10/19 08:06:02;;;;;;;;;;;12.90;99.90;;;;;;4969964;28;20282;-74
2022/10/19 08:08:28;;;;;;;;;;;12.70;99.90;;;;;;4957421;28;19914;-75
2022/10/19 08:10:53;;;;;;;;;;;12.60;99.90;;;;;;4951110;28;19913;-75
2022/10/19 08:13:19;;;;;;;;;;;12.90;99.90;;;;;;4967253;28;19972;-75
2022/10/19 08:15:44;;;;;;;;;;;13.10;99.90;;;;;;4969706;28;20012;-74
2022/10/19 08:18:10;;;;;;;;;;;13.30;99.90;;;;;;4968339;28;19928;-75
2022/10/19 08:20:36;;;;;;;;;;;13.50;99.90;;;;;;4962090;28;19956;-74
2022/10/19 08:23:01;;;;;;;;;;;13.70;99.90;;;;;;4959108;28;20603;-74
2022/10/19 08:25:27;;;;;;;;;;;13.90;99.90;;;;;;4952596;28;19914;-74
2022/10/19 08:27:52;;;;;;;;;;;14.00;99.90;;;;;;4950842;28;19954;-75
2022/10/19 08:30:17;;;;;;;;;;;14.00;99.90;;;;;;4953227;28;20157;-74
2022/10/19 08:32:43;;;;;;;;;;;14.10;99.90;;;;;;4959832;28;19916;-74
2022/10/19 08:35:08;;;;;;;;;;;14.10;99.90;;;;;;4953655;28;19952;-75
2022/10/19 08:37:34;;;;;;;;;;;14.30;99.90;;;;;;4951194;28;19911;-74
2022/10/19 08:39:59;;;;;;;;;;;14.10;99.90;;;;;;4955714;28;20546;-74
2022/10/19 08:42:30;;;;;;;;;;;14.30;99.90;;;;;;4958176;28;19922;-74
2022/10/19 08:45:02;;;;;;;;;;;14.90;99.90;;;;;;4953093;28;19913;-74
2022/10/19 08:47:47;;;;;;;;;;;15.10;99.90;;;;;;4955025;28;19918;-74
2022/10/19 08:50:31;;;;;;;;;;;14.60;99.90;;;;;;4961897;28;19957;-75
2022/10/19 08:53:00;;;;;;;;;;;14.40;99.90;;;;;;4961980;28;20391;-74
2022/10/19 08:55:28;;;;;;;;;;;14.50;99.90;;;;;;4969339;28;19910;-74
2022/10/19 08:57:56;;;;;;;;;;;14.80;99.90;;;;;;4969397;28;20263;-74
2022/10/19 09:00:42;;;;;;;;;;;15.30;99.90;;;;;;4968533;28;19984;-75
2022/10/19 09:03:22;;;;;;;;;;;15.50;99.90;;;;;;4952328;28;19914;-74
2022/10/19 09:05:52;;;;;;;;;;;15.80;99.90;;;;;;4954594;28;19957;-74
2022/10/19 09:08:18;;;;;;;;;;;16.10;99.90;;;;;;4969349;28;19910;-74
2022/10/19 09:10:45;;;;;;;;;;;16.00;99.90;;;;;;4953793;28;19922;-74
2022/10/19 09:13:16;;;;;;;;;;;15.60;99.90;;;;;;4950186;28;19906;-74
2022/10/19 09:15:44;;;;;;;;;;;15.60;99.90;;;;;;4958488;28;20463;-74
2022/10/19 09:18:10;;;;;;;;;;;15.60;99.90;;;;;;4953120;28;20279;-74
2022/10/19 09:20:42;;;;;;;;;;;15.70;99.90;;;;;;4953803;28;19916;-75
2022/10/19 09:23:20;;;;;;;;;;;15.40;99.90;;;;;;4971662;28;19914;-74
2022/10/19 09:25:47;;;;;;;;;;;15.30;99.90;;;;;;4969518;28;19961;-74
2022/10/19 09:28:30;;;;;;;;;;;14.80;99.90;;;;;;4961787;28;19910;-75
2022/10/19 09:30:56;;;;;;;;;;;14.60;99.90;;;;;;4968764;28;19952;-75
2022/10/19 09:33:25;;;;;;;;;;;15.10;99.90;;;;;;4966580;28;20015;-74
2022/10/19 09:35:52;;;;;;;;;;;15.80;99.90;;;;;;4953815;28;19907;-74
2022/10/19 09:38:19;;;;;;;;;;;16.50;99.90;;;;;;4953504;28;19906;-74
2022/10/19 09:40:44;;;;;;;;;;;16.40;99.90;;;;;;4953474;28;19910;-75
2022/10/19 09:43:20;;;;;;;;;;;16.10;99.90;;;;;;4959602;28;19932;-75
2022/10/19 09:46:03;;;;;;;;;;;16.00;99.90;;;;;;4971529;28;20125;-74
2022/10/19 09:48:34;;;;;;;;;;;15.50;99.90;;;;;;4954081;28;19914;-75
2022/10/19 09:51:01;;;;;;;;;;;15.50;99.90;;;;;;4953835;28;20281;-75
2022/10/19 09:53:27;;;;;;;;;;;15.80;99.90;;;;;;4957019;28;19969;-74
2022/10/19 09:56:04;;;;;;;;;;;15.80;99.60;;;;;;4966273;28;20308;-74
2022/10/19 09:58:30;;;;;;;;;;;15.90;99.50;;;;;;4972250;28;20428;-75
2022/10/19 10:00:56;;;;;;;;;;;16.10;98.60;;;;;;4971033;28;19957;-74
2022/10/19 10:03:31;;;;;;;;;;;16.10;97.90;;;;;;4962396;28;19914;-75
2022/10/19 10:06:06;;;;;;;;;;;16.00;98.70;;;;;;4960676;28;19969;-74
2022/10/19 10:08:33;;;;;;;;;;;15.60;98.90;;;;;;4972343;28;19906;-74
2022/10/19 10:11:05;;;;;;;;;;;15.70;99.70;;;;;;4972431;28;20293;-74
2022/10/19 10:13:34;;;;;;;;;;;15.80;97.00;;;;;;4970490;28;19914;-75
2022/10/19 10:16:00;;;;;;;;;;;15.60;94.00;;;;;;4961719;28;19917;-74
2022/10/19 10:18:26;;;;;;;;;;;15.50;92.00;;;;;;4970488;28;20005;-74
2022/10/19 10:21:00;;;;;;;;;;;15.60;94.50;;;;;;4953493;28;20001;-74
2022/10/19 10:23:27;;;;;;;;;;;15.80;92.90;;;;;;4959501;28;19922;-75
2022/10/19 10:25:56;;;;;;;;;;;15.70;90.20;;;;;;4972077;28;19913;-75
2022/10/19 10:28:23;;;;;;;;;;;15.70;89.20;;;;;;4970811;28;19912;-75
2022/10/19 10:30:52;;;;;;;;;;;16.10;89.70;;;;;;4971592;28;19914;-75
2022/10/19 10:33:25;;;;;;;;;;;16.60;88.80;;;;;;4970394;28;19910;-75
2022/10/19 10:35:54;;;;;;;;;;;16.80;84.50;;;;;;4966314;28;19914;-75
2022/10/19 10:38:34;;;;;;;;;;;17.30;82.90;;;;;;4962785;28;19943;-74
2022/10/19 10:41:01;;;;;;;;;;;18.10;80.50;;;;;;4956001;28;20392;-75
2022/10/19 10:43:30;;;;;;;;;;;18.20;79.40;;;;;;4966368;28;19918;-74
2022/10/19 10:45:59;;;;;;;;;;;18.00;76.40;;;;;;4965117;28;19993;-75
2022/10/19 10:48:29;;;;;;;;;;;18.10;77.80;;;;;;4966910;28;19997;-76
2022/10/19 10:50:55;;;;;;;;;;;18.20;78.00;;;;;;4966898;28;19918;-75
2022/10/19 10:53:47;;;;;;;;;;;18.30;74.40;;;;;;4963102;28;19917;-80
2022/10/19 10:56:26;;;;;;;;;;;18.10;76.90;;;;;;4960431;28;20336;-79
2022/10/19 10:58:59;;;;;;;;;;;18.10;79.40;;;;;;4963850;28;20270;-83
2022/10/19 11:01:37;;;;;;;;;;;18.00;78.60;;;;;;4964068;28;19914;-76
2022/10/19 11:04:04;;;;;;;;;;;18.30;78.70;;;;;;4967454;28;19910;-77
2022/10/19 11:06:31;;;;;;;;;;;18.30;76.30;;;;;;4965781;28;19914;-76
2022/10/19 11:09:00;;;;;;;;;;;18.00;75.70;;;;;;4967731;28;19917;-75
2022/10/19 11:11:55;;;;;;;;;;;17.60;74.20;;;;;;4963783;28;19914;-77
2022/10/19 11:14:32;;;;;;;;;;;17.40;77.10;;;;;;4947396;28;19921;-77
2022/10/19 11:17:02;;;;;;;;;;;17.70;74.80;;;;;;4966409;28;19945;-76
2022/10/19 11:19:33;;;;;;;;;;;18.20;73.00;;;;;;4962774;28;19921;-76
2022/10/19 11:22:07;;;;;;;;;;;18.10;72.60;;;;;;4959632;28;20395;-77
2022/10/19 11:24:51;;;;;;;;;;;19.60;72.40;;;;;;4963310;28;19997;-76
2022/10/19 11:27:27;;;;;;;;;;;19.10;70.30;;;;;;4962866;28;19944;-74
2022/10/19 11:30:12;;;;;;;;;;;18.40;77.10;;;;;;4967197;28;20336;-74
2022/10/19 11:32:40;;;;;;;;;;;17.80;76.10;;;;;;4966453;28;20325;-75
2022/10/19 11:35:05;;;;;;;;;;;17.20;80.00;;;;;;4967241;28;19945;-75
2022/10/19 11:37:41;;;;;;;;;;;17.00;79.40;;;;;;4960328;28;20443;-73
2022/10/19 11:40:17;;;;;;;;;;;20.80;72.50;;;;;;4961102;28;19914;-73
2022/10/19 11:42:48;;;;;;;;;;;27.80;52.10;;;;;;4961275;28;20691;-74
2022/10/19 11:45:19;;;;;;;;;;;25.40;50.20;;;;;;4963224;28;19912;-74
2022/10/19 11:48:03;;;;;;;;;;;22.90;55.20;;;;;;4967124;28;19957;-75
2022/10/19 11:50:33;;;;;;;;;;;21.40;60.80;;;;;;4960620;28;19967;-75
2022/10/19 11:53:13;;;;;;;;;;;19.90;65.70;;;;;;4966766;28;19964;-76
2022/10/19 11:55:59;;;;;;;;;;;18.30;70.00;;;;;;4955822;28;20488;-75
2022/10/19 11:58:33;;;;;;;;;;;17.40;75.50;;;;;;4963280;28;19918;-75
2022/10/19 12:01:06;;;;;;;;;;;17.00;77.00;;;;;;4961541;28;19994;-77
2022/10/19 12:03:38;;;;;;;;;;;16.90;77.70;;;;;;4962525;28;20417;-82
2022/10/19 12:06:16;;;;;;;;;;;17.00;79.70;;;;;;4961212;28;19918;-79
2022/10/19 12:08:50;;;;;;;;;;;17.20;79.70;;;;;;4962189;28;19914;-80
2022/10/19 12:11:34;;;;;;;;;;;17.50;81.20;;;;;;4961477;28;19910;-79
2022/10/19 12:14:01;;;;;;;;;;;17.30;77.70;;;;;;4956314;28;19938;-79
2022/10/19 12:16:35;;;;;;;;;;;17.50;79.70;;;;;;4962498;28;19921;-77
2022/10/19 12:19:01;;;;;;;;;;;18.30;73.50;;;;;;4965152;28;19917;-74
2022/10/19 12:21:33;;;;;;;;;;;18.50;73.60;;;;;;4963822;28;20005;-76
2022/10/19 12:24:00;;;;;;;;;;;18.40;75.60;;;;;;4961875;28;20194;-75
2022/10/19 12:26:28;;;;;;;;;;;22.30;63.80;;;;;;4952814;28;20361;-76
2022/10/19 12:29:01;;;;;;;;;;;27.40;52.20;;;;;;4959890;28;19969;-75
2022/10/19 12:31:28;;;;;;;;;;;24.60;52.60;;;;;;4960306;28;20358;-76
2022/10/19 12:33:56;;;;;;;;;;;22.50;57.40;;;;;;4961516;28;20374;-75
2022/10/19 12:36:30;;;;;;;;;;;20.80;61.40;;;;;;4961682;28;19941;-75
2022/10/19 12:39:14;;;;;;;;;;;19.50;64.20;;;;;;4961050;28;19914;-75
2022/10/19 12:42:00;;;;;;;;;;;18.60;69.70;;;;;;4957790;28;19933;-75
2022/10/19 12:44:39;;;;;;;;;;;18.30;73.40;;;;;;4957902;28;19910;-74
2022/10/19 12:47:10;;;;;;;;;;;18.20;75.40;;;;;;4956806;28;19925;-76
2022/10/19 12:49:41;;;;;;;;;;;18.40;72.50;;;;;;4960185;28;20498;-76
2022/10/19 12:52:07;;;;;;;;;;;18.80;70.80;;;;;;4963532;28;19914;-75
2022/10/19 12:54:33;;;;;;;;;;;23.70;58.50;;;;;;4968147;28;19914;-75
2022/10/19 12:57:00;;;;;;;;;;;22.90;58.80;;;;;;4960252;28;19969;-76
2022/10/19 12:59:32;;;;;;;;;;;21.30;60.10;;;;;;4957626;28;19921;-75
2022/10/19 13:01:59;;;;;;;;;;;20.30;62.30;;;;;;4960940;28;19910;-76
2022/10/19 13:04:29;;;;;;;;;;;22.20;61.00;;;;;;4961872;28;19929;-76
2022/10/19 13:07:00;;;;;;;;;;;25.60;54.10;;;;;;4964835;28;20517;-75
2022/10/19 13:09:40;;;;;;;;;;;30.10;44.80;;;;;;4952016;28;19911;-75
2022/10/19 13:12:12;;;;;;;;;;;33.10;40.60;;;;;;4955848;28;20432;-76
2022/10/19 13:14:50;;;;;;;;;;;33.20;37.80;;;;;;4960179;28;20262;-77
2022/10/19 13:17:42;;;;;;;;;;;34.40;36.80;;;;;;4963226;28;20021;-76
2022/10/19 13:20:14;;;;;;;;;;;35.30;34.40;;;;;;4962983;28;19910;-75
2022/10/19 13:22:39;;;;;;;;;;;30.60;37.80;;;;;;4960216;28;19910;-75
2022/10/19 13:25:17;;;;;;;;;;;25.60;46.20;;;;;;4960951;28;19920;-75
2022/10/19 13:27:43;;;;;;;;;;;24.20;48.20;;;;;;4964030;28;19917;-75
2022/10/19 13:30:29;;;;;;;;;;;20.50;55.70;;;;;;4955670;28;19953;-75
2022/10/19 13:32:54;;;;;;;;;;;24.10;53.20;;;;;;4933532;28;19914;-75
2022/10/19 13:35:24;;;;;;;;;;;29.60;43.10;;;;;;4961448;28;20002;-75
2022/10/19 13:38:09;;;;;;;;;;;30.80;39.60;;;;;;4958189;28;19961;-75
2022/10/19 13:40:54;;;;;;;;;;;32.00;37.90;;;;;;4959249;28;20725;-75
2022/10/19 13:43:19;;;;;;;;;;;31.70;37.50;;;;;;4962218;28;19918;-75
2022/10/19 13:46:03;;;;;;;;;;;31.80;37.70;;;;;;4959619;28;20301;-75
2022/10/19 13:48:47;;;;;;;;;;;29.90;39.60;;;;;;4963638;28;20039;-75
2022/10/19 13:51:21;;;;;;;;;;;25.60;45.90;;;;;;4964415;28;19910;-75
2022/10/19 13:54:06;;;;;;;;;;;22.30;51.30;;;;;;4959802;28;19968;-76
2022/10/19 13:56:50;;;;;;;;;;;20.80;56.60;;;;;;4960532;28;19906;-76
2022/10/19 13:59:34;;;;;;;;;;;20.00;58.50;;;;;;4968084;28;19957;-75
2022/10/19 14:02:18;;;;;;;;;;;19.50;60.40;;;;;;4967735;28;20010;-75
2022/10/19 14:04:50;;;;;;;;;;;18.90;63.30;;;;;;4967829;28;20549;-76
2022/10/19 14:07:20;;;;;;;;;;;19.00;62.50;;;;;;4968039;28;19914;-76
2022/10/19 14:10:04;;;;;;;;;;;19.10;64.60;;;;;;4970503;28;19920;-75
2022/10/19 14:12:32;;;;;;;;;;;19.90;61.30;;;;;;4963394;28;19917;-76
2022/10/19 14:14:59;;;;;;;;;;;23.30;55.70;;;;;;4962321;28;19964;-75
2022/10/19 14:17:29;;;;;;;;;;;27.60;47.20;;;;;;4957097;28;19910;-77
2022/10/19 14:19:58;;;;;;;;;;;30.20;42.70;;;;;;4965342;28;19919;-75
2022/10/19 14:22:28;;;;;;;;;;;31.30;40.50;;;;;;4964702;28;19937;-75
2022/10/19 14:25:02;;;;;;;;;;;31.50;39.00;;;;;;4960043;28;19910;-75
2022/10/19 14:27:28;;;;;;;;;;;31.50;38.70;;;;;;4962845;28;20345;-75
2022/10/19 14:29:54;;;;;;;;;;;31.40;37.50;;;;;;4956415;28;21363;-75
2022/10/19 14:32:29;;;;;;;;;;;31.00;38.50;;;;;;4933504;28;19918;-75